Government of Jersey

Home Log in

Channel Islands Terminal Aerodrome Forecasts (TAFs)

Jersey Airport - EGJJ

EGJJ 291103Z 2912/2921 33005KT 9999 SCT028=

Guernsey Airport - EGJB

EGJB 291103Z 2912/2921 32006KT 9999 SCT025 BECMG 2920/2921 25010KT PROB30 TEMPO 2920/2921 8000 -RA BKN015=

Alderney Airport - EGJA

EGJA 291103Z 2912/2921 32008KT 9999 SCT025 BECMG 2920/2921 25013KT=